Time;durP1;ratioP1;P1;durP2;ratioP2;P2;SDS_P1;SDS_P2;PMS_P1;PMS_P2;Temp;Humidity;BMP_temperature;BMP_pressure;BME280_temperature;BME280_humidity;BME280_pressure;Samples;Min_cycle;Max_cycle;Signal;HPM_P1;HPM_P2
2022/10/05 01:12:35;;;;;;;0.00;0.00;;;;;;;;;;5008974;28;20050;-87
2022/10/05 01:17:37;;;;;;;0.20;0.20;;;;;;;;;;5523610;22;20062;-86
2022/10/05 01:20:10;;;;;;;0.10;0.10;;;;;;;;;;4998195;28;20041;-88
2022/10/05 01:23:14;;;;;;;0.10;0.10;;;;;;;;;;4994515;28;20042;-88
2022/10/05 01:25:58;;;;;;;0.25;0.25;;;;;;;;;;5176289;23;20066;-87
2022/10/05 01:28:35;;;;;;;0.10;0.10;;;;;;;;;;4995932;28;20041;-88
2022/10/05 01:31:16;;;;;;;0.15;0.15;;;;;;;;;;5011720;28;20102;-87
2022/10/05 01:33:48;;;;;;;0.20;0.20;;;;;;;;;;4999529;28;20042;-87
2022/10/05 01:36:33;;;;;;;0.28;0.28;;;;;;;;;;4993050;28;20046;-88
2022/10/05 01:42:51;;;;;;;0.10;0.10;;;;;;;;;;5133235;22;20133;-88
2022/10/05 01:52:16;;;;;;;0.20;0.20;;;;;;;;;;5013631;28;20047;-88
2022/10/05 05:25:17;;;;;;;0.20;0.20;;;;;;;;;;5194815;22;20088;-89
2022/10/05 05:28:03;;;;;;;0.20;0.20;;;;;;;;;;4994567;28;20491;-89
2022/10/05 05:30:50;;;;;;;0.20;0.20;;;;;;;;;;5131025;22;20054;-90
2022/10/05 07:03:25;;;;;;;0.13;0.13;;;;;;;;;;5027628;28;20050;-90
2022/10/05 07:05:51;;;;;;;0.20;0.20;;;;;;;;;;4997029;28;20045;-90
2022/10/05 07:08:27;;;;;;;0.10;0.10;;;;;;;;;;4987211;28;20039;-90
2022/10/05 07:11:13;;;;;;;0.20;0.20;;;;;;;;;;4989849;28;20041;-90
2022/10/05 07:13:50;;;;;;;0.20;0.20;;;;;;;;;;4990062;28;20038;-91
2022/10/05 07:16:37;;;;;;;0.20;0.20;;;;;;;;;;4997926;28;20077;-89
2022/10/05 07:19:24;;;;;;;0.20;0.20;;;;;;;;;;4983547;28;20054;-89
2022/10/05 07:22:10;;;;;;;0.20;0.20;;;;;;;;;;4985478;28;20069;-93
2022/10/05 07:24:46;;;;;;;0.10;0.10;;;;;;;;;;4997082;28;20068;-91
2022/10/05 07:27:16;;;;;;;0.05;0.05;;;;;;;;;;4995143;28;20045;-91
2022/10/05 07:29:49;;;;;;;0.10;0.10;;;;;;;;;;4994012;28;20505;-91
2022/10/05 07:32:36;;;;;;;0.13;0.13;;;;;;;;;;4995793;28;20053;-93
2022/10/05 07:35:05;;;;;;;0.20;0.20;;;;;;;;;;4987020;28;20061;-93
2022/10/05 07:37:56;;;;;;;0.20;0.20;;;;;;;;;;4984639;28;20060;-93
2022/10/05 07:40:32;;;;;;;0.10;0.10;;;;;;;;;;4994923;28;20042;-94
2022/10/05 07:43:17;;;;;;;0.08;0.08;;;;;;;;;;4976036;28;20110;-93
2022/10/05 07:45:50;;;;;;;0.10;0.10;;;;;;;;;;4976358;28;20035;-91
2022/10/05 07:48:32;;;;;;;0.20;0.20;;;;;;;;;;4977580;28;20030;-93
2022/10/05 07:51:05;;;;;;;0.17;0.17;;;;;;;;;;4976673;28;20042;-93
2022/10/05 07:53:45;;;;;;;0.10;0.10;;;;;;;;;;4980973;28;20058;-93
2022/10/05 07:56:30;;;;;;;0.10;0.10;;;;;;;;;;4995189;28;20038;-92
2022/10/05 07:59:09;;;;;;;0.20;0.20;;;;;;;;;;4995399;28;20046;-95
2022/10/05 08:01:42;;;;;;;0.20;0.20;;;;;;;;;;4980204;28;20033;-95
2022/10/05 08:04:15;;;;;;;0.10;0.10;;;;;;;;;;4995840;28;20052;-91
2022/10/05 08:06:51;;;;;;;0.20;0.20;;;;;;;;;;4996007;28;20042;-92
2022/10/05 08:09:28;;;;;;;0.20;0.20;;;;;;;;;;4987722;28;20044;-93
2022/10/05 08:12:09;;;;;;;0.22;0.22;;;;;;;;;;4976303;28;20053;-94
2022/10/05 08:14:36;;;;;;;0.35;0.35;;;;;;;;;;4978209;28;20042;-95
2022/10/05 08:17:05;;;;;;;0.20;0.20;;;;;;;;;;4995371;28;20085;-90
2022/10/05 08:19:45;;;;;;;0.17;0.17;;;;;;;;;;4995373;28;20052;-90
2022/10/05 08:22:17;;;;;;;0.20;0.20;;;;;;;;;;4995334;28;20061;-90
2022/10/05 08:24:54;;;;;;;0.10;0.10;;;;;;;;;;4995022;28;20077;-91
2022/10/05 08:27:43;;;;;;;0.15;0.15;;;;;;;;;;4987349;28;20038;-93
2022/10/05 08:30:12;;;;;;;0.20;0.20;;;;;;;;;;4981736;28;20049;-92
2022/10/05 08:32:41;;;;;;;0.10;0.10;;;;;;;;;;4981043;28;20125;-92
2022/10/05 08:35:16;;;;;;;0.10;0.10;;;;;;;;;;4994638;28;20089;-91
2022/10/05 08:37:51;;;;;;;0.15;0.15;;;;;;;;;;5002546;28;20048;-93
2022/10/05 08:40:20;;;;;;;0.10;0.10;;;;;;;;;;4973348;28;20047;-91
2022/10/05 08:56:13;;;;;;;0.20;0.20;;;;;;;;;;6237336;22;1304930;-89
2022/10/05 08:58:56;;;;;;;0.20;0.20;;;;;;;;;;6243766;23;20020;-89
2022/10/05 09:01:29;;;;;;;0.10;0.10;;;;;;;;;;6244666;23;20027;-91
2022/10/05 09:03:55;;;;;;;0.10;0.10;;;;;;;;;;6244032;23;20020;-89
2022/10/05 09:06:21;;;;;;;0.10;0.10;;;;;;;;;;6244075;23;20030;-90
2022/10/05 09:08:56;;;;;;;0.13;0.13;;;;;;;;;;6242609;23;20016;-90
2022/10/05 09:11:31;;;;;;;0.15;0.15;;;;;;;;;;6244052;23;20636;-91
2022/10/05 09:13:57;;;;;;;;;;;;;;;;;;6244924;23;20020;-91
2022/10/05 09:16:38;;;;;;;0.17;0.17;;;;;;;;;;6246677;23;19935;-91
2022/10/05 09:19:11;;;;;;;0.20;0.20;;;;;;;;;;6270835;23;20027;-94
2022/10/05 09:21:42;;;;;;;0.17;0.17;;;;;;;;;;6276555;23;20059;-96
2022/10/05 09:24:29;;;;;;;0.10;0.10;;;;;;;;;;6276793;23;20016;-95
2022/10/05 09:27:02;;;;;;;0.20;0.20;;;;;;;;;;6250279;22;20016;-95
2022/10/05 09:29:53;;;;;;;0.20;0.20;;;;;;;;;;6250124;23;20016;-94
2022/10/05 09:32:50;;;;;;;0.10;0.10;;;;;;;;;;6252726;23;19999;-95
2022/10/05 09:35:38;;;;;;;0.10;0.10;;;;;;;;;;6242421;23;20010;-94
2022/10/05 09:43:25;;;;;;;0.15;0.15;;;;;;;;;;6283251;22;20025;-88
2022/10/05 09:46:10;;;;;;;0.10;0.10;;;;;;;;;;6187372;23;20019;-89
2022/10/05 09:48:42;;;;;;;0.10;0.10;;;;;;;;;;6187589;23;20016;-89
2022/10/05 09:54:31;;;;;;;0.20;0.20;;;;;;;;;;6244062;23;20034;-89
2022/10/05 09:56:57;;;;;;;0.13;0.13;;;;;;;;;;6183323;23;20067;-92
2022/10/05 09:59:39;;;;;;;0.20;0.20;;;;;;;;;;6181730;23;20024;-95
2022/10/05 10:02:08;;;;;;;0.20;0.20;;;;;;;;;;6182901;23;20088;-91
2022/10/05 10:04:34;;;;;;;0.30;0.30;;;;;;;;;;6184532;23;20059;-93
2022/10/05 10:07:19;;;;;;;0.20;0.20;;;;;;;;;;6183239;23;20234;-96
2022/10/05 10:09:57;;;;;;;0.10;0.10;;;;;;;;;;6210027;23;20016;-94
2022/10/05 10:12:32;;;;;;;0.10;0.10;;;;;;;;;;6184119;23;20020;-95
2022/10/05 10:15:04;;;;;;;0.10;0.10;;;;;;;;;;6183693;23;20122;-95
2022/10/05 10:17:36;;;;;;;0.10;0.10;;;;;;;;;;6184999;23;20024;-96
2022/10/05 10:20:15;;;;;;;0.10;0.10;;;;;;;;;;6186424;23;20538;-95
2022/10/05 10:22:51;;;;;;;0.20;0.20;;;;;;;;;;6186701;23;20024;-95
2022/10/05 10:25:36;;;;;;;0.10;0.10;;;;;;;;;;6213215;23;20047;-95
2022/10/05 10:28:18;;;;;;;0.20;0.20;;;;;;;;;;6186458;23;20108;-95
2022/10/05 10:31:16;;;;;;;0.20;0.20;;;;;;;;;;6188325;23;20024;-92
2022/10/05 10:33:58;;;;;;;0.28;0.28;;;;;;;;;;6190795;23;20067;-95
2022/10/05 10:36:42;;;;;;;0.10;0.10;;;;;;;;;;6185772;23;20020;-94
2022/10/05 10:39:16;;;;;;;0.10;0.10;;;;;;;;;;6185264;23;20067;-95
2022/10/05 10:41:55;;;;;;;0.00;0.00;;;;;;;;;;6186937;23;20035;-94
2022/10/05 10:49:45;;;;;;;0.10;0.10;;;;;;;;;;6245869;22;20263;-94
2022/10/05 10:52:28;;;;;;;0.20;0.20;;;;;;;;;;6272153;22;20015;-96
2022/10/05 10:55:04;;;;;;;0.10;0.10;;;;;;;;;;6246253;22;20004;-96
2022/10/05 10:57:49;;;;;;;0.17;0.17;;;;;;;;;;6248495;22;20016;-96
2022/10/05 11:00:22;;;;;;;0.20;0.20;;;;;;;;;;6270992;22;20020;-95
2022/10/05 11:03:24;;;;;;;0.20;0.20;;;;;;;;;;6245813;22;20026;-92
2022/10/05 11:05:51;;;;;;;0.15;0.15;;;;;;;;;;6097133;23;20026;-89
2022/10/05 11:08:36;;;;;;;0.10;0.10;;;;;;;;;;6214714;22;20022;-93
2022/10/05 11:11:21;;;;;;;0.08;0.08;;;;;;;;;;6246482;22;20019;-94
2022/10/05 11:14:01;;;;;;;0.20;0.20;;;;;;;;;;6241595;22;20064;-90
2022/10/05 11:16:46;;;;;;;0.10;0.10;;;;;;;;;;6246909;22;20020;-90
2022/10/05 11:19:31;;;;;;;0.10;0.10;;;;;;;;;;6243486;22;20046;-92
2022/10/05 11:22:13;;;;;;;0.10;0.10;;;;;;;;;;6242838;22;20016;-92
2022/10/05 11:24:42;;;;;;;0.20;0.20;;;;;;;;;;6242923;22;20050;-89
2022/10/05 11:27:08;;;;;;;0.13;0.13;;;;;;;;;;6240633;22;20016;-90
2022/10/05 11:29:47;;;;;;;0.10;0.10;;;;;;;;;;6239047;22;20459;-90
2022/10/05 11:32:32;;;;;;;0.10;0.10;;;;;;;;;;6241421;22;20016;-89
2022/10/05 11:35:09;;;;;;;0.10;0.10;;;;;;;;;;6242584;22;20482;-89
2022/10/05 11:37:54;;;;;;;0.10;0.10;;;;;;;;;;6244187;22;20020;-90
2022/10/05 11:40:33;;;;;;;0.20;0.20;;;;;;;;;;6242466;22;20019;-90
2022/10/05 11:43:12;;;;;;;0.13;0.13;;;;;;;;;;6243837;22;20059;-90
2022/10/05 11:45:50;;;;;;;0.13;0.13;;;;;;;;;;6243830;22;20027;-91
2022/10/05 11:48:23;;;;;;;0.10;0.10;;;;;;;;;;6242435;22;20516;-89
2022/10/05 11:51:19;;;;;;;0.10;0.10;;;;;;;;;;6273646;22;20018;-88
2022/10/05 11:53:58;;;;;;;0.10;0.10;;;;;;;;;;6243590;22;20015;-90
2022/10/05 11:56:40;;;;;;;0.20;0.20;;;;;;;;;;6243254;22;20016;-90
2022/10/05 11:59:25;;;;;;;0.10;0.10;;;;;;;;;;6242385;22;20030;-92
2022/10/05 12:01:55;;;;;;;0.20;0.20;;;;;;;;;;6268131;22;20015;-92
2022/10/05 12:04:40;;;;;;;0.10;0.10;;;;;;;;;;6243314;22;20087;-89
2022/10/05 12:07:12;;;;;;;0.20;0.20;;;;;;;;;;6242932;22;20015;-91
2022/10/05 12:12:38;;;;;;;0.10;0.10;;;;;;;;;;6267571;22;20023;-91
2022/10/05 12:15:07;;;;;;;0.10;0.10;;;;;;;;;;6243225;22;20019;-89
2022/10/05 12:17:39;;;;;;;0.10;0.10;;;;;;;;;;6243571;22;20024;-90
2022/10/05 12:20:13;;;;;;;0.20;0.20;;;;;;;;;;6242929;22;20024;-89
2022/10/05 12:22:58;;;;;;;0.20;0.20;;;;;;;;;;6268169;22;20019;-89
2022/10/05 12:25:25;;;;;;;0.10;0.10;;;;;;;;;;6243213;22;20465;-89
2022/10/05 12:27:57;;;;;;;0.10;0.10;;;;;;;;;;6241327;22;20016;-88
2022/10/05 12:30:33;;;;;;;0.15;0.15;;;;;;;;;;6241135;22;20023;-89
2022/10/05 12:33:04;;;;;;;0.20;0.20;;;;;;;;;;6242012;22;20055;-89
2022/10/05 12:35:49;;;;;;;0.10;0.10;;;;;;;;;;6242771;22;20015;-90
2022/10/05 12:38:32;;;;;;;0.10;0.10;;;;;;;;;;6269143;22;20015;-90
2022/10/05 12:41:07;;;;;;;0.00;0.00;;;;;;;;;;6242668;22;20019;-92
2022/10/05 12:43:36;;;;;;;0.10;0.10;;;;;;;;;;6243085;22;20042;-91
2022/10/05 12:46:06;;;;;;;0.10;0.10;;;;;;;;;;6242666;22;20081;-91
2022/10/05 12:48:51;;;;;;;0.10;0.10;;;;;;;;;;6267470;22;20024;-95
2022/10/05 12:51:21;;;;;;;0.15;0.15;;;;;;;;;;6244277;22;20027;-94
2022/10/05 12:53:50;;;;;;;0.05;0.05;;;;;;;;;;6246433;22;20016;-92
2022/10/05 12:56:31;;;;;;;0.20;0.20;;;;;;;;;;6244674;22;20020;-90
2022/10/05 12:59:09;;;;;;;0.10;0.10;;;;;;;;;;6245212;22;20015;-92
2022/10/05 13:01:39;;;;;;;0.10;0.10;;;;;;;;;;6244913;22;20030;-94
2022/10/05 13:04:19;;;;;;;0.10;0.10;;;;;;;;;;6243930;22;20012;-93
2022/10/05 13:07:07;;;;;;;0.00;0.00;;;;;;;;;;6242874;22;20011;-93
2022/10/05 13:09:40;;;;;;;0.40;0.40;;;;;;;;;;6288892;22;20007;-91
2022/10/05 13:12:13;;;;;;;0.10;0.10;;;;;;;;;;6243063;22;20020;-90
2022/10/05 13:15:02;;;;;;;0.10;0.10;;;;;;;;;;6242108;22;20149;-90
2022/10/05 13:17:38;;;;;;;0.10;0.10;;;;;;;;;;6242328;22;20069;-90
2022/10/05 13:20:11;;;;;;;0.03;0.03;;;;;;;;;;6243029;22;20015;-88
2022/10/05 13:22:41;;;;;;;0.10;0.10;;;;;;;;;;6220157;22;20049;-91
2022/10/05 13:25:16;;;;;;;0.10;0.10;;;;;;;;;;6244314;22;20016;-91
2022/10/05 13:27:42;;;;;;;;;;;;;;;;;;6244857;22;20011;-91
2022/10/05 13:30:15;;;;;;;0.08;0.08;;;;;;;;;;6245384;22;19964;-90
2022/10/05 13:32:46;;;;;;;0.10;0.10;;;;;;;;;;6245879;22;20015;-91
2022/10/05 13:35:37;;;;;;;0.10;0.10;;;;;;;;;;6245192;22;20022;-89
2022/10/05 13:38:10;;;;;;;0.10;0.10;;;;;;;;;;6245004;22;20020;-91
2022/10/05 13:40:45;;;;;;;0.10;0.10;;;;;;;;;;6244927;22;20020;-90
2022/10/05 13:43:30;;;;;;;0.10;0.10;;;;;;;;;;6244631;22;20024;-90
2022/10/05 13:46:06;;;;;;;0.15;0.15;;;;;;;;;;6245535;22;20016;-92
2022/10/05 13:48:56;;;;;;;0.10;0.10;;;;;;;;;;6244892;22;20020;-91
2022/10/05 13:51:24;;;;;;;0.10;0.10;;;;;;;;;;6244004;22;20019;-92
2022/10/05 13:54:09;;;;;;;0.10;0.10;;;;;;;;;;6244790;22;20020;-91
2022/10/05 13:56:42;;;;;;;0.10;0.10;;;;;;;;;;6244467;22;20098;-92
2022/10/05 13:59:16;;;;;;;0.10;0.10;;;;;;;;;;6244886;22;20023;-91
2022/10/05 14:01:55;;;;;;;0.13;0.13;;;;;;;;;;6244476;22;20020;-90
2022/10/05 14:04:23;;;;;;;0.10;0.10;;;;;;;;;;6244313;22;20023;-91
2022/10/05 14:06:51;;;;;;;0.15;0.15;;;;;;;;;;6242673;22;20019;-91
2022/10/05 14:09:20;;;;;;;0.20;0.20;;;;;;;;;;6243454;22;20011;-93
2022/10/05 14:12:07;;;;;;;0.10;0.10;;;;;;;;;;6247261;22;20019;-93
2022/10/05 14:14:43;;;;;;;0.10;0.10;;;;;;;;;;6220701;22;20400;-94
2022/10/05 14:17:27;;;;;;;0.20;0.20;;;;;;;;;;6246073;22;20091;-93
2022/10/05 14:19:56;;;;;;;0.10;0.10;;;;;;;;;;6245589;22;20075;-94
2022/10/05 14:22:23;;;;;;;0.10;0.10;;;;;;;;;;6246876;22;20020;-94
2022/10/05 14:25:02;;;;;;;0.10;0.10;;;;;;;;;;6247256;22;20019;-94
2022/10/05 14:27:30;;;;;;;0.20;0.20;;;;;;;;;;6246642;22;20051;-95
2022/10/05 14:29:56;;;;;;;0.10;0.10;;;;;;;;;;6246460;22;20067;-96
2022/10/05 14:32:24;;;;;;;0.10;0.10;;;;;;;;;;6245588;22;20019;-95
2022/10/05 14:35:06;;;;;;;0.10;0.10;;;;;;;;;;6247077;22;20024;-91
2022/10/05 14:40:34;;;;;;;0.10;0.10;;;;;;;;;;6219777;22;20024;-89
2022/10/05 14:43:15;;;;;;;0.20;0.20;;;;;;;;;;6262728;23;20043;-91
2022/10/05 14:45:59;;;;;;;0.10;0.10;;;;;;;;;;6233660;23;20035;-90
2022/10/05 14:48:27;;;;;;;0.20;0.20;;;;;;;;;;6236318;23;20016;-91
2022/10/05 14:50:55;;;;;;;0.10;0.10;;;;;;;;;;6236511;23;20016;-91
2022/10/05 14:53:38;;;;;;;0.10;0.10;;;;;;;;;;6236428;23;20040;-89
2022/10/05 14:56:23;;;;;;;0.10;0.10;;;;;;;;;;6234563;23;20022;-90
2022/10/05 14:58:56;;;;;;;0.10;0.10;;;;;;;;;;6234963;23;20068;-88
2022/10/05 15:01:22;;;;;;;0.10;0.10;;;;;;;;;;6236719;23;20020;-90
2022/10/05 15:04:03;;;;;;;0.10;0.10;;;;;;;;;;6236250;23;20024;-90
2022/10/05 15:06:46;;;;;;;0.10;0.10;;;;;;;;;;6236479;23;20063;-89
2022/10/05 15:09:21;;;;;;;0.03;0.03;;;;;;;;;;6236384;23;20016;-91
2022/10/05 15:11:54;;;;;;;0.10;0.10;;;;;;;;;;6235560;23;20020;-89
2022/10/05 15:14:30;;;;;;;0.03;0.03;;;;;;;;;;6235589;23;20020;-95
2022/10/05 15:17:02;;;;;;;0.15;0.15;;;;;;;;;;6238249;23;20020;-92
2022/10/05 15:19:35;;;;;;;0.00;0.00;;;;;;;;;;6235276;23;20024;-92
2022/10/05 15:22:23;;;;;;;0.10;0.10;;;;;;;;;;6260346;23;20016;-92
2022/10/05 15:24:50;;;;;;;0.10;0.10;;;;;;;;;;6237629;23;20023;-93
2022/10/05 15:27:29;;;;;;;0.17;0.17;;;;;;;;;;6237253;23;20019;-93
2022/10/05 15:30:02;;;;;;;0.10;0.10;;;;;;;;;;6239420;23;20024;-94
2022/10/05 15:32:34;;;;;;;0.20;0.20;;;;;;;;;;6236584;23;20016;-93
2022/10/05 15:35:21;;;;;;;0.10;0.10;;;;;;;;;;6236323;23;20012;-93
2022/10/05 15:37:54;;;;;;;0.10;0.10;;;;;;;;;;6235482;23;20020;-93
2022/10/05 15:40:39;;;;;;;0.17;0.17;;;;;;;;;;6236296;23;20023;-94
2022/10/05 15:43:15;;;;;;;0.10;0.10;;;;;;;;;;6235844;23;20016;-94
2022/10/05 15:45:43;;;;;;;0.10;0.10;;;;;;;;;;6236223;23;20017;-95
2022/10/05 15:48:13;;;;;;;0.10;0.10;;;;;;;;;;6237171;23;20014;-95
2022/10/05 15:50:49;;;;;;;0.10;0.10;;;;;;;;;;6236414;23;20012;-95
2022/10/05 15:53:24;;;;;;;0.10;0.10;;;;;;;;;;6236085;23;20023;-95
2022/10/05 15:55:54;;;;;;;0.03;0.03;;;;;;;;;;6236717;23;20051;-93
2022/10/05 15:58:30;;;;;;;0.10;0.10;;;;;;;;;;6236381;23;20016;-94
2022/10/05 16:01:02;;;;;;;0.05;0.05;;;;;;;;;;6236354;23;20016;-94
2022/10/05 16:03:43;;;;;;;0.10;0.10;;;;;;;;;;6237784;23;20016;-95
2022/10/05 16:09:05;;;;;;;0.10;0.10;;;;;;;;;;6261284;23;20020;-94
2022/10/05 16:11:39;;;;;;;0.10;0.10;;;;;;;;;;6237375;23;20016;-95
2022/10/05 16:14:26;;;;;;;0.10;0.10;;;;;;;;;;6236980;23;20020;-93
2022/10/05 16:17:11;;;;;;;0.10;0.10;;;;;;;;;;6236469;23;20051;-95
2022/10/05 16:19:38;;;;;;;;;;;;;;;;;;6262319;23;20024;-96
2022/10/05 16:22:15;;;;;;;0.10;0.10;;;;;;;;;;6235204;23;19950;-94
2022/10/05 16:24:42;;;;;;;0.20;0.20;;;;;;;;;;6235165;23;20023;-94
2022/10/05 16:27:14;;;;;;;0.10;0.10;;;;;;;;;;6234940;23;20070;-95
2022/10/05 16:30:22;;;;;;;0.20;0.20;;;;;;;;;;6236169;23;20061;-95
2022/10/05 16:33:11;;;;;;;0.10;0.10;;;;;;;;;;6169816;23;20063;-95
2022/10/05 16:36:07;;;;;;;0.15;0.15;;;;;;;;;;6144581;23;20021;-94
2022/10/05 16:38:51;;;;;;;0.10;0.10;;;;;;;;;;6219002;23;20075;-95
2022/10/05 16:41:20;;;;;;;0.22;0.22;;;;;;;;;;6235041;23;20020;-93
2022/10/05 16:44:08;;;;;;;0.10;0.10;;;;;;;;;;6235981;23;20023;-93
2022/10/05 16:46:37;;;;;;;0.10;0.10;;;;;;;;;;6235957;23;20099;-96
2022/10/05 16:49:07;;;;;;;0.10;0.10;;;;;;;;;;6236180;23;20020;-95
2022/10/05 16:51:38;;;;;;;0.10;0.10;;;;;;;;;;6237336;23;20047;-95
2022/10/05 16:54:10;;;;;;;0.10;0.10;;;;;;;;;;6237242;23;20027;-95
2022/10/05 16:56:43;;;;;;;0.10;0.10;;;;;;;;;;6236601;23;20027;-96
2022/10/05 16:59:28;;;;;;;0.10;0.10;;;;;;;;;;6237493;23;20556;-95
2022/10/05 17:02:10;;;;;;;0.10;0.10;;;;;;;;;;6237949;23;20020;-95
2022/10/05 17:04:56;;;;;;;0.10;0.10;;;;;;;;;;6238886;23;20016;-94
2022/10/05 17:07:42;;;;;;;0.13;0.13;;;;;;;;;;6239306;23;20039;-94
2022/10/05 17:10:21;;;;;;;0.10;0.10;;;;;;;;;;6238407;23;20064;-96
2022/10/05 17:13:34;;;;;;;0.20;0.20;;;;;;;;;;6268259;23;20016;-95
2022/10/05 17:27:01;;;;;;;0.10;0.10;;;;;;;;;;6243599;22;20028;-94
2022/10/05 17:29:48;;;;;;;0.20;0.20;;;;;;;;;;6303364;22;20034;-96
2022/10/05 17:37:41;;;;;;;0.20;0.20;;;;;;;;;;6238423;22;20025;-94
2022/10/05 17:40:26;;;;;;;0.00;0.00;;;;;;;;;;6212484;23;20001;-95
2022/10/05 17:43:00;;;;;;;0.10;0.10;;;;;;;;;;6214188;23;20020;-94
2022/10/05 17:48:34;;;;;;;0.10;0.10;;;;;;;;;;6240468;22;20024;-91
2022/10/05 18:16:36;;;;;;;0.22;0.22;;;;;;;;;;6282896;22;20019;-91
2022/10/05 18:26:58;;;;;;;0.10;0.10;;;;;;;;;;6218494;22;20072;-92
2022/10/05 18:57:19;;;;;;;0.20;0.20;;;;;;;;;;6267992;22;20031;-88
2022/10/05 19:00:23;;;;;;;0.08;0.08;;;;;;;;;;6207264;22;20025;-91
2022/10/05 19:22:24;;;;;;;0.20;0.20;;;;;;;;;;6290281;22;20024;-91
2022/10/05 19:28:22;;;;;;;0.10;0.10;;;;;;;;;;6240200;22;20031;-90
2022/10/05 19:31:11;;;;;;;0.10;0.10;;;;;;;;;;6269335;22;20104;-92
2022/10/05 19:44:34;;;;;;;0.10;0.10;;;;;;;;;;6287146;22;20028;-92
2022/10/05 19:47:44;;;;;;;0.20;0.20;;;;;;;;;;6263141;23;20027;-92
2022/10/05 19:50:43;;;;;;;0.10;0.10;;;;;;;;;;6242331;22;20000;-90
2022/10/05 19:53:15;;;;;;;0.10;0.10;;;;;;;;;;6265247;23;20040;-91
2022/10/05 20:03:30;;;;;;;0.10;0.10;;;;;;;;;;6262482;22;20407;-90
2022/10/05 20:11:14;;;;;;;0.10;0.10;;;;;;;;;;6267268;22;20008;-89
2022/10/05 20:14:13;;;;;;;0.10;0.10;;;;;;;;;;6272489;22;20002;-91
2022/10/05 20:20:40;;;;;;;0.17;0.17;;;;;;;;;;6273873;22;20004;-90
2022/10/05 20:47:03;;;;;;;0.10;0.10;;;;;;;;;;6261937;22;20434;-92
2022/10/05 20:49:53;;;;;;;0.20;0.20;;;;;;;;;;6271713;23;20008;-91
2022/10/05 20:52:30;;;;;;;0.20;0.20;;;;;;;;;;6248243;23;20024;-92
2022/10/05 20:55:30;;;;;;;0.20;0.20;;;;;;;;;;6273648;22;20014;-92
2022/10/05 20:58:34;;;;;;;0.17;0.17;;;;;;;;;;6271363;22;20515;-92
2022/10/05 21:23:05;;;;;;;0.10;0.10;;;;;;;;;;6257204;22;20023;-92
2022/10/05 21:25:47;;;;;;;0.10;0.10;;;;;;;;;;6246110;23;20027;-93
2022/10/05 22:59:33;;;;;;;0.17;0.17;;;;;;;;;;6289387;22;20059;-93
2022/10/05 23:25:25;;;;;;;0.20;0.20;;;;;;;;;;6272995;22;20016;-94
2022/10/05 23:28:01;;;;;;;0.20;0.20;;;;;;;;;;6272749;22;20034;-94
2022/10/05 23:47:00;;;;;;;0.20;0.20;;;;;;;;;;6301710;22;20019;-94
2022/10/05 23:49:51;;;;;;;0.15;0.15;;;;;;;;;;6227258;22;20112;-94
2022/10/05 23:52:18;;;;;;;0.20;0.20;;;;;;;;;;6274820;22;19999;-96
